sensor_id;sensor_type;location;lat;lon;timestamp;temperature;humidity
21207;DHT22;10761;48.532;8.026;2024-03-25T00:01:54;5.80;1.00
21207;DHT22;10761;48.532;8.026;2024-03-25T00:04:19;5.80;1.00
21207;DHT22;10761;48.532;8.026;2024-03-25T00:06:48;5.80;1.00
21207;DHT22;10761;48.532;8.026;2024-03-25T00:09:13;5.80;1.00
21207;DHT22;10761;48.532;8.026;2024-03-25T00:11:40;5.80;1.00
21207;DHT22;10761;48.532;8.026;2024-03-25T00:14:07;5.80;1.00
21207;DHT22;10761;48.532;8.026;2024-03-25T00:16:32;5.80;1.00
21207;DHT22;10761;48.532;8.026;2024-03-25T00:18:58;5.90;1.00
21207;DHT22;10761;48.532;8.026;2024-03-25T00:21:24;5.90;1.00
21207;DHT22;10761;48.532;8.026;2024-03-25T00:23:49;5.90;1.00
21207;DHT22;10761;48.532;8.026;2024-03-25T00:26:15;5.90;1.00
21207;DHT22;10761;48.532;8.026;2024-03-25T00:28:40;5.90;99.90
21207;DHT22;10761;48.532;8.026;2024-03-25T00:31:06;5.90;1.00
21207;DHT22;10761;48.532;8.026;2024-03-25T00:33:32;5.90;1.00
21207;DHT22;10761;48.532;8.026;2024-03-25T00:35:58;5.90;1.00
21207;DHT22;10761;48.532;8.026;2024-03-25T00:38:24;5.80;1.00
21207;DHT22;10761;48.532;8.026;2024-03-25T00:40:50;5.80;1.00
21207;DHT22;10761;48.532;8.026;2024-03-25T00:43:16;5.80;1.00
21207;DHT22;10761;48.532;8.026;2024-03-25T00:45:41;5.80;1.00
21207;DHT22;10761;48.532;8.026;2024-03-25T00:48:07;5.80;1.00
21207;DHT22;10761;48.532;8.026;2024-03-25T00:50:33;5.80;1.00
21207;DHT22;10761;48.532;8.026;2024-03-25T00:52:58;5.80;1.00
21207;DHT22;10761;48.532;8.026;2024-03-25T00:55:24;5.80;1.00
21207;DHT22;10761;48.532;8.026;2024-03-25T00:57:50;5.80;1.00
21207;DHT22;10761;48.532;8.026;2024-03-25T01:00:16;5.90;1.00
21207;DHT22;10761;48.532;8.026;2024-03-25T01:02:43;5.90;1.00
21207;DHT22;10761;48.532;8.026;2024-03-25T01:05:08;5.80;1.00
21207;DHT22;10761;48.532;8.026;2024-03-25T01:07:34;5.90;1.00
21207;DHT22;10761;48.532;8.026;2024-03-25T01:10:00;5.80;1.00
21207;DHT22;10761;48.532;8.026;2024-03-25T01:12:26;5.80;1.00
21207;DHT22;10761;48.532;8.026;2024-03-25T01:14:52;5.80;1.00
21207;DHT22;10761;48.532;8.026;2024-03-25T01:17:18;5.80;1.00
21207;DHT22;10761;48.532;8.026;2024-03-25T01:19:43;5.80;1.00
21207;DHT22;10761;48.532;8.026;2024-03-25T01:22:09;5.70;1.00
21207;DHT22;10761;48.532;8.026;2024-03-25T01:24:35;5.80;1.00
21207;DHT22;10761;48.532;8.026;2024-03-25T01:27:00;5.80;1.00
21207;DHT22;10761;48.532;8.026;2024-03-25T01:29:26;5.80;1.00
21207;DHT22;10761;48.532;8.026;2024-03-25T01:31:52;5.70;1.00
21207;DHT22;10761;48.532;8.026;2024-03-25T01:34:18;5.70;1.00
21207;DHT22;10761;48.532;8.026;2024-03-25T01:36:44;5.70;1.00
21207;DHT22;10761;48.532;8.026;2024-03-25T01:39:10;5.70;1.00
21207;DHT22;10761;48.532;8.026;2024-03-25T01:41:35;5.70;1.00
21207;DHT22;10761;48.532;8.026;2024-03-25T01:44:01;5.60;1.00
21207;DHT22;10761;48.532;8.026;2024-03-25T01:46:30;5.60;1.00
21207;DHT22;10761;48.532;8.026;2024-03-25T01:48:55;5.60;1.00
21207;DHT22;10761;48.532;8.026;2024-03-25T01:51:23;5.60;1.00
21207;DHT22;10761;48.532;8.026;2024-03-25T01:53:49;5.60;1.00
21207;DHT22;10761;48.532;8.026;2024-03-25T01:56:18;5.60;1.00
21207;DHT22;10761;48.532;8.026;2024-03-25T01:58:45;5.60;1.00
21207;DHT22;10761;48.532;8.026;2024-03-25T02:01:11;5.60;1.00
21207;DHT22;10761;48.532;8.026;2024-03-25T02:03:41;5.70;1.00
21207;DHT22;10761;48.532;8.026;2024-03-25T02:06:13;5.60;1.00
21207;DHT22;10761;48.532;8.026;2024-03-25T02:08:41;5.60;1.00
21207;DHT22;10761;48.532;8.026;2024-03-25T02:11:08;5.60;1.00
21207;DHT22;10761;48.532;8.026;2024-03-25T02:13:37;5.60;1.00
21207;DHT22;10761;48.532;8.026;2024-03-25T02:16:03;5.50;1.00
21207;DHT22;10761;48.532;8.026;2024-03-25T02:18:29;5.50;1.00
21207;DHT22;10761;48.532;8.026;2024-03-25T02:20:57;5.50;1.00
21207;DHT22;10761;48.532;8.026;2024-03-25T02:23:23;5.50;1.00
21207;DHT22;10761;48.532;8.026;2024-03-25T02:25:52;5.50;1.00
21207;DHT22;10761;48.532;8.026;2024-03-25T02:28:18;5.50;1.00
21207;DHT22;10761;48.532;8.026;2024-03-25T02:30:44;5.50;1.00
21207;DHT22;10761;48.532;8.026;2024-03-25T02:33:10;5.40;1.00
21207;DHT22;10761;48.532;8.026;2024-03-25T02:35:36;5.40;1.00
21207;DHT22;10761;48.532;8.026;2024-03-25T02:38:02;5.30;1.00
21207;DHT22;10761;48.532;8.026;2024-03-25T02:40:31;5.30;1.00
21207;DHT22;10761;48.532;8.026;2024-03-25T02:42:57;5.30;1.00
21207;DHT22;10761;48.532;8.026;2024-03-25T02:45:23;5.30;1.00
21207;DHT22;10761;48.532;8.026;2024-03-25T02:47:50;5.30;1.00
21207;DHT22;10761;48.532;8.026;2024-03-25T02:50:16;5.30;1.00
21207;DHT22;10761;48.532;8.026;2024-03-25T02:52:42;5.20;1.00
21207;DHT22;10761;48.532;8.026;2024-03-25T02:55:07;5.20;1.00
21207;DHT22;10761;48.532;8.026;2024-03-25T02:57:33;5.20;1.00
21207;DHT22;10761;48.532;8.026;2024-03-25T02:59:58;5.20;1.00
21207;DHT22;10761;48.532;8.026;2024-03-25T03:02:24;5.10;1.00
21207;DHT22;10761;48.532;8.026;2024-03-25T03:04:50;5.10;1.00
21207;DHT22;10761;48.532;8.026;2024-03-25T03:07:15;5.10;1.00
21207;DHT22;10761;48.532;8.026;2024-03-25T03:09:41;5.00;1.00
21207;DHT22;10761;48.532;8.026;2024-03-25T03:12:07;5.00;1.00
21207;DHT22;10761;48.532;8.026;2024-03-25T03:14:32;5.00;1.00
21207;DHT22;10761;48.532;8.026;2024-03-25T03:16:58;5.00;1.00
21207;DHT22;10761;48.532;8.026;2024-03-25T03:19:27;5.00;1.00
21207;DHT22;10761;48.532;8.026;2024-03-25T03:21:53;4.90;1.00
21207;DHT22;10761;48.532;8.026;2024-03-25T03:24:19;4.90;1.00
21207;DHT22;10761;48.532;8.026;2024-03-25T03:26:44;4.90;1.00
21207;DHT22;10761;48.532;8.026;2024-03-25T03:29:10;4.90;8.30
21207;DHT22;10761;48.532;8.026;2024-03-25T03:31:36;4.90;1.00
21207;DHT22;10761;48.532;8.026;2024-03-25T03:34:02;4.90;1.00
21207;DHT22;10761;48.532;8.026;2024-03-25T03:36:27;4.90;14.40
21207;DHT22;10761;48.532;8.026;2024-03-25T03:38:53;4.90;1.00
21207;DHT22;10761;48.532;8.026;2024-03-25T03:41:19;4.80;1.00
21207;DHT22;10761;48.532;8.026;2024-03-25T03:43:45;4.90;42.60
21207;DHT22;10761;48.532;8.026;2024-03-25T03:46:11;5.10;13.20
21207;DHT22;10761;48.532;8.026;2024-03-25T03:48:37;5.10;1.00
21207;DHT22;10761;48.532;8.026;2024-03-25T03:51:04;5.20;1.00
21207;DHT22;10761;48.532;8.026;2024-03-25T03:53:30;5.20;1.00
21207;DHT22;10761;48.532;8.026;2024-03-25T03:55:58;5.20;1.00
21207;DHT22;10761;48.532;8.026;2024-03-25T03:58:24;5.30;1.00
21207;DHT22;10761;48.532;8.026;2024-03-25T04:00:50;5.30;1.00
21207;DHT22;10761;48.532;8.026;2024-03-25T04:03:16;5.30;1.00
21207;DHT22;10761;48.532;8.026;2024-03-25T04:05:41;5.30;1.00
21207;DHT22;10761;48.532;8.026;2024-03-25T04:08:07;5.40;1.00
21207;DHT22;10761;48.532;8.026;2024-03-25T04:10:34;5.30;1.00
21207;DHT22;10761;48.532;8.026;2024-03-25T04:12:59;5.30;1.00
21207;DHT22;10761;48.532;8.026;2024-03-25T04:15:25;5.40;1.00
21207;DHT22;10761;48.532;8.026;2024-03-25T04:17:51;5.50;1.00
21207;DHT22;10761;48.532;8.026;2024-03-25T04:20:17;5.60;1.00
21207;DHT22;10761;48.532;8.026;2024-03-25T04:22:46;5.60;1.00
21207;DHT22;10761;48.532;8.026;2024-03-25T04:25:13;5.60;1.00
21207;DHT22;10761;48.532;8.026;2024-03-25T04:27:42;5.60;1.00
21207;DHT22;10761;48.532;8.026;2024-03-25T04:30:09;5.60;1.00
21207;DHT22;10761;48.532;8.026;2024-03-25T04:32:35;5.60;1.00
21207;DHT22;10761;48.532;8.026;2024-03-25T04:35:02;5.60;1.00
21207;DHT22;10761;48.532;8.026;2024-03-25T04:37:28;5.60;1.00
21207;DHT22;10761;48.532;8.026;2024-03-25T04:39:55;5.60;1.00
21207;DHT22;10761;48.532;8.026;2024-03-25T04:42:21;5.60;1.00
21207;DHT22;10761;48.532;8.026;2024-03-25T04:44:47;5.60;1.00
21207;DHT22;10761;48.532;8.026;2024-03-25T04:47:13;5.50;1.00
21207;DHT22;10761;48.532;8.026;2024-03-25T04:49:41;5.50;1.00
21207;DHT22;10761;48.532;8.026;2024-03-25T04:52:06;5.40;1.00
21207;DHT22;10761;48.532;8.026;2024-03-25T04:54:32;5.30;1.00
21207;DHT22;10761;48.532;8.026;2024-03-25T04:56:58;5.30;1.00
21207;DHT22;10761;48.532;8.026;2024-03-25T04:59:23;5.30;1.00
21207;DHT22;10761;48.532;8.026;2024-03-25T05:01:49;5.30;1.00
21207;DHT22;10761;48.532;8.026;2024-03-25T05:04:14;5.30;1.00
21207;DHT22;10761;48.532;8.026;2024-03-25T05:06:40;5.30;1.00
21207;DHT22;10761;48.532;8.026;2024-03-25T05:09:06;5.20;1.00
21207;DHT22;10761;48.532;8.026;2024-03-25T05:11:32;5.10;1.00
21207;DHT22;10761;48.532;8.026;2024-03-25T05:13:58;5.00;1.00
21207;DHT22;10761;48.532;8.026;2024-03-25T05:16:24;5.00;1.00
21207;DHT22;10761;48.532;8.026;2024-03-25T05:18:49;5.00;1.00
21207;DHT22;10761;48.532;8.026;2024-03-25T05:21:15;5.00;1.00
21207;DHT22;10761;48.532;8.026;2024-03-25T05:23:41;5.00;1.00
21207;DHT22;10761;48.532;8.026;2024-03-25T05:26:07;4.90;1.00
21207;DHT22;10761;48.532;8.026;2024-03-25T05:28:33;4.80;1.00
21207;DHT22;10761;48.532;8.026;2024-03-25T05:31:08;4.80;6.10
21207;DHT22;10761;48.532;8.026;2024-03-25T05:33:34;4.70;25.80
21207;DHT22;10761;48.532;8.026;2024-03-25T05:36:01;4.70;99.90
21207;DHT22;10761;48.532;8.026;2024-03-25T05:38:27;4.70;99.90
21207;DHT22;10761;48.532;8.026;2024-03-25T05:40:53;4.70;99.90
21207;DHT22;10761;48.532;8.026;2024-03-25T05:43:19;4.70;99.90
21207;DHT22;10761;48.532;8.026;2024-03-25T05:45:55;4.70;99.90
21207;DHT22;10761;48.532;8.026;2024-03-25T05:48:21;4.80;99.90
21207;DHT22;10761;48.532;8.026;2024-03-25T05:51:03;4.90;99.90
21207;DHT22;10761;48.532;8.026;2024-03-25T05:53:32;4.90;99.90
21207;DHT22;10761;48.532;8.026;2024-03-25T05:55:58;5.00;99.90
21207;DHT22;10761;48.532;8.026;2024-03-25T05:58:25;5.20;64.90
21207;DHT22;10761;48.532;8.026;2024-03-25T06:00:51;5.20;50.30
21207;DHT22;10761;48.532;8.026;2024-03-25T06:03:16;5.20;32.70
21207;DHT22;10761;48.532;8.026;2024-03-25T06:05:43;5.30;53.40
21207;DHT22;10761;48.532;8.026;2024-03-25T06:08:09;5.30;36.70
21207;DHT22;10761;48.532;8.026;2024-03-25T06:10:44;5.40;6.00
21207;DHT22;10761;48.532;8.026;2024-03-25T06:13:10;5.50;15.60
21207;DHT22;10761;48.532;8.026;2024-03-25T06:15:35;5.50;13.20
21207;DHT22;10761;48.532;8.026;2024-03-25T06:18:01;5.60;6.00
21207;DHT22;10761;48.532;8.026;2024-03-25T06:20:26;5.60;39.30
21207;DHT22;10761;48.532;8.026;2024-03-25T06:22:52;5.60;1.00
21207;DHT22;10761;48.532;8.026;2024-03-25T06:25:17;5.70;9.80
21207;DHT22;10761;48.532;8.026;2024-03-25T06:27:43;5.70;36.40
21207;DHT22;10761;48.532;8.026;2024-03-25T06:30:10;5.80;1.00
21207;DHT22;10761;48.532;8.026;2024-03-25T06:32:54;5.80;1.00
21207;DHT22;10761;48.532;8.026;2024-03-25T06:35:39;5.90;1.00
21207;DHT22;10761;48.532;8.026;2024-03-25T06:38:04;6.00;1.00
21207;DHT22;10761;48.532;8.026;2024-03-25T06:40:30;6.00;1.00
21207;DHT22;10761;48.532;8.026;2024-03-25T06:42:56;6.10;1.00
21207;DHT22;10761;48.532;8.026;2024-03-25T06:45:22;6.20;1.00
21207;DHT22;10761;48.532;8.026;2024-03-25T06:47:48;6.20;1.00
21207;DHT22;10761;48.532;8.026;2024-03-25T06:50:14;6.30;1.00
21207;DHT22;10761;48.532;8.026;2024-03-25T06:52:40;6.40;1.00
21207;DHT22;10761;48.532;8.026;2024-03-25T06:55:06;6.50;1.00
21207;DHT22;10761;48.532;8.026;2024-03-25T06:57:31;6.50;99.90
21207;DHT22;10761;48.532;8.026;2024-03-25T06:59:57;6.60;99.90
21207;DHT22;10761;48.532;8.026;2024-03-25T07:02:23;6.60;1.00
21207;DHT22;10761;48.532;8.026;2024-03-25T07:04:49;6.60;1.00
21207;DHT22;10761;48.532;8.026;2024-03-25T07:07:14;6.60;99.90
21207;DHT22;10761;48.532;8.026;2024-03-25T07:09:40;6.70;8.90
21207;DHT22;10761;48.532;8.026;2024-03-25T07:12:06;6.70;1.00
21207;DHT22;10761;48.532;8.026;2024-03-25T07:14:32;6.60;1.00
21207;DHT22;10761;48.532;8.026;2024-03-25T07:16:58;6.60;1.00
21207;DHT22;10761;48.532;8.026;2024-03-25T07:19:24;6.60;1.00
21207;DHT22;10761;48.532;8.026;2024-03-25T07:21:49;6.60;1.00
21207;DHT22;10761;48.532;8.026;2024-03-25T07:24:15;6.60;1.00
21207;DHT22;10761;48.532;8.026;2024-03-25T07:26:40;6.70;1.00
21207;DHT22;10761;48.532;8.026;2024-03-25T07:29:06;6.80;1.00
21207;DHT22;10761;48.532;8.026;2024-03-25T07:31:32;7.00;99.90
21207;DHT22;10761;48.532;8.026;2024-03-25T07:33:58;7.20;1.00
21207;DHT22;10761;48.532;8.026;2024-03-25T07:36:24;7.70;1.00
21207;DHT22;10761;48.532;8.026;2024-03-25T07:38:49;8.30;1.00
21207;DHT22;10761;48.532;8.026;2024-03-25T07:41:15;8.80;1.00
21207;DHT22;10761;48.532;8.026;2024-03-25T07:43:41;9.10;1.00
21207;DHT22;10761;48.532;8.026;2024-03-25T07:46:06;9.50;37.60
21207;DHT22;10761;48.532;8.026;2024-03-25T07:48:32;10.00;99.90
21207;DHT22;10761;48.532;8.026;2024-03-25T07:50:58;10.40;1.00
21207;DHT22;10761;48.532;8.026;2024-03-25T07:53:23;10.80;99.90
21207;DHT22;10761;48.532;8.026;2024-03-25T07:55:49;11.30;1.00
21207;DHT22;10761;48.532;8.026;2024-03-25T07:58:16;11.60;1.00
21207;DHT22;10761;48.532;8.026;2024-03-25T08:00:42;11.70;1.00
21207;DHT22;10761;48.532;8.026;2024-03-25T08:03:07;11.90;1.00
21207;DHT22;10761;48.532;8.026;2024-03-25T08:05:33;12.00;1.00
21207;DHT22;10761;48.532;8.026;2024-03-25T08:07:59;12.30;1.00
21207;DHT22;10761;48.532;8.026;2024-03-25T08:10:25;12.60;1.00
21207;DHT22;10761;48.532;8.026;2024-03-25T08:12:50;13.00;1.00
21207;DHT22;10761;48.532;8.026;2024-03-25T08:15:16;13.10;1.00
21207;DHT22;10761;48.532;8.026;2024-03-25T08:17:41;13.10;1.00
21207;DHT22;10761;48.532;8.026;2024-03-25T08:20:07;13.10;1.00
21207;DHT22;10761;48.532;8.026;2024-03-25T08:22:33;12.70;1.00
21207;DHT22;10761;48.532;8.026;2024-03-25T08:24:59;13.00;1.00
21207;DHT22;10761;48.532;8.026;2024-03-25T08:27:25;12.90;1.00
21207;DHT22;10761;48.532;8.026;2024-03-25T08:29:50;12.90;1.00
21207;DHT22;10761;48.532;8.026;2024-03-25T08:32:18;12.80;1.00
21207;DHT22;10761;48.532;8.026;2024-03-25T08:34:44;12.30;1.00
21207;DHT22;10761;48.532;8.026;2024-03-25T08:37:10;12.00;1.00
21207;DHT22;10761;48.532;8.026;2024-03-25T08:39:36;12.10;1.00
21207;DHT22;10761;48.532;8.026;2024-03-25T08:42:01;11.70;1.00
21207;DHT22;10761;48.532;8.026;2024-03-25T08:44:27;12.00;1.00
21207;DHT22;10761;48.532;8.026;2024-03-25T08:46:52;12.50;1.00
21207;DHT22;10761;48.532;8.026;2024-03-25T08:49:18;12.90;1.00
21207;DHT22;10761;48.532;8.026;2024-03-25T08:51:44;13.30;1.00
21207;DHT22;10761;48.532;8.026;2024-03-25T08:54:09;13.90;1.00
21207;DHT22;10761;48.532;8.026;2024-03-25T08:56:35;14.10;1.00
21207;DHT22;10761;48.532;8.026;2024-03-25T08:59:00;14.40;99.90
21207;DHT22;10761;48.532;8.026;2024-03-25T09:01:26;15.10;99.90
21207;DHT22;10761;48.532;8.026;2024-03-25T09:03:52;15.60;99.90
21207;DHT22;10761;48.532;8.026;2024-03-25T09:06:17;16.20;99.90
21207;DHT22;10761;48.532;8.026;2024-03-25T09:08:43;16.90;99.90
21207;DHT22;10761;48.532;8.026;2024-03-25T09:11:27;16.80;99.90
21207;DHT22;10761;48.532;8.026;2024-03-25T09:13:53;16.70;99.90
21207;DHT22;10761;48.532;8.026;2024-03-25T09:16:18;16.60;99.90
21207;DHT22;10761;48.532;8.026;2024-03-25T09:18:44;16.40;99.90
21207;DHT22;10761;48.532;8.026;2024-03-25T09:21:11;16.50;99.90
21207;DHT22;10761;48.532;8.026;2024-03-25T09:23:36;17.10;99.90
21207;DHT22;10761;48.532;8.026;2024-03-25T09:26:02;17.30;99.90
21207;DHT22;10761;48.532;8.026;2024-03-25T09:28:27;17.00;99.90
21207;DHT22;10761;48.532;8.026;2024-03-25T09:30:53;16.50;99.90
21207;DHT22;10761;48.532;8.026;2024-03-25T09:33:19;15.80;99.90
21207;DHT22;10761;48.532;8.026;2024-03-25T09:35:44;15.40;99.90
21207;DHT22;10761;48.532;8.026;2024-03-25T09:38:10;15.80;99.90
21207;DHT22;10761;48.532;8.026;2024-03-25T09:40:36;16.20;99.90
21207;DHT22;10761;48.532;8.026;2024-03-25T09:43:11;16.30;99.90
21207;DHT22;10761;48.532;8.026;2024-03-25T09:45:39;16.30;99.90
21207;DHT22;10761;48.532;8.026;2024-03-25T09:48:06;16.40;99.90
21207;DHT22;10761;48.532;8.026;2024-03-25T09:50:32;16.60;99.90
21207;DHT22;10761;48.532;8.026;2024-03-25T09:52:58;16.60;92.80
21207;DHT22;10761;48.532;8.026;2024-03-25T09:55:24;16.50;70.40
21207;DHT22;10761;48.532;8.026;2024-03-25T09:57:50;16.50;31.80
21207;DHT22;10761;48.532;8.026;2024-03-25T10:00:17;16.50;1.50
21207;DHT22;10761;48.532;8.026;2024-03-25T10:02:44;16.40;1.00
21207;DHT22;10761;48.532;8.026;2024-03-25T10:05:09;16.40;1.00
21207;DHT22;10761;48.532;8.026;2024-03-25T10:07:35;16.70;1.00
21207;DHT22;10761;48.532;8.026;2024-03-25T10:10:07;16.80;1.00
21207;DHT22;10761;48.532;8.026;2024-03-25T10:12:32;16.60;1.00
21207;DHT22;10761;48.532;8.026;2024-03-25T10:14:58;16.50;2.10
21207;DHT22;10761;48.532;8.026;2024-03-25T10:17:25;16.20;15.20
21207;DHT22;10761;48.532;8.026;2024-03-25T10:19:50;15.90;20.40
21207;DHT22;10761;48.532;8.026;2024-03-25T10:22:16;15.70;10.40
21207;DHT22;10761;48.532;8.026;2024-03-25T10:24:43;15.90;4.80
21207;DHT22;10761;48.532;8.026;2024-03-25T10:27:21;16.10;1.00
21207;DHT22;10761;48.532;8.026;2024-03-25T10:29:48;15.90;1.00
21207;DHT22;10761;48.532;8.026;2024-03-25T10:32:14;16.10;1.00
21207;DHT22;10761;48.532;8.026;2024-03-25T10:34:40;16.40;1.00
21207;DHT22;10761;48.532;8.026;2024-03-25T10:37:09;16.90;1.00
21207;DHT22;10761;48.532;8.026;2024-03-25T10:39:41;17.10;1.00
21207;DHT22;10761;48.532;8.026;2024-03-25T10:42:12;17.50;1.00
21207;DHT22;10761;48.532;8.026;2024-03-25T10:44:38;17.40;1.00
21207;DHT22;10761;48.532;8.026;2024-03-25T10:47:05;17.30;1.00
21207;DHT22;10761;48.532;8.026;2024-03-25T10:49:49;16.80;1.00
21207;DHT22;10761;48.532;8.026;2024-03-25T10:52:16;16.50;1.00
21207;DHT22;10761;48.532;8.026;2024-03-25T10:54:46;16.30;1.00
21207;DHT22;10761;48.532;8.026;2024-03-25T10:57:13;15.90;1.00
21207;DHT22;10761;48.532;8.026;2024-03-25T10:59:39;15.40;1.00
21207;DHT22;10761;48.532;8.026;2024-03-25T11:02:07;15.50;1.00
21207;DHT22;10761;48.532;8.026;2024-03-25T11:04:33;15.90;13.10
21207;DHT22;10761;48.532;8.026;2024-03-25T11:07:09;15.70;3.90
21207;DHT22;10761;48.532;8.026;2024-03-25T11:09:36;15.60;1.00
21207;DHT22;10761;48.532;8.026;2024-03-25T11:12:02;15.50;4.30
21207;DHT22;10761;48.532;8.026;2024-03-25T11:14:28;15.20;1.00
21207;DHT22;10761;48.532;8.026;2024-03-25T11:16:55;15.20;2.00
21207;DHT22;10761;48.532;8.026;2024-03-25T11:19:25;15.10;4.60
21207;DHT22;10761;48.532;8.026;2024-03-25T11:21:51;15.70;19.80
21207;DHT22;10761;48.532;8.026;2024-03-25T11:24:27;16.00;1.00
21207;DHT22;10761;48.532;8.026;2024-03-25T11:26:53;16.50;1.00
21207;DHT22;10761;48.532;8.026;2024-03-25T11:29:20;17.10;1.00
21207;DHT22;10761;48.532;8.026;2024-03-25T11:31:46;17.50;1.00
21207;DHT22;10761;48.532;8.026;2024-03-25T11:34:14;17.60;1.00
21207;DHT22;10761;48.532;8.026;2024-03-25T11:36:39;17.60;1.00
21207;DHT22;10761;48.532;8.026;2024-03-25T11:39:06;17.30;1.00
21207;DHT22;10761;48.532;8.026;2024-03-25T11:41:39;16.90;1.00
21207;DHT22;10761;48.532;8.026;2024-03-25T11:44:05;16.40;1.00
21207;DHT22;10761;48.532;8.026;2024-03-25T11:46:36;16.10;1.00
21207;DHT22;10761;48.532;8.026;2024-03-25T11:49:06;16.20;1.00
21207;DHT22;10761;48.532;8.026;2024-03-25T11:51:33;16.30;1.00
21207;DHT22;10761;48.532;8.026;2024-03-25T11:53:59;16.80;1.00
21207;DHT22;10761;48.532;8.026;2024-03-25T11:56:25;16.90;1.00
21207;DHT22;10761;48.532;8.026;2024-03-25T11:58:51;17.40;1.00
21207;DHT22;10761;48.532;8.026;2024-03-25T12:01:17;17.60;1.00
21207;DHT22;10761;48.532;8.026;2024-03-25T12:03:43;18.00;1.00
21207;DHT22;10761;48.532;8.026;2024-03-25T12:06:08;17.90;1.00
21207;DHT22;10761;48.532;8.026;2024-03-25T12:08:34;18.30;1.00
21207;DHT22;10761;48.532;8.026;2024-03-25T12:11:09;18.20;1.00
21207;DHT22;10761;48.532;8.026;2024-03-25T12:13:44;18.50;1.00
21207;DHT22;10761;48.532;8.026;2024-03-25T12:16:10;18.90;1.00
21207;DHT22;10761;48.532;8.026;2024-03-25T12:18:36;18.90;1.00
21207;DHT22;10761;48.532;8.026;2024-03-25T12:21:04;19.10;1.00
21207;DHT22;10761;48.532;8.026;2024-03-25T12:23:31;19.10;1.00
21207;DHT22;10761;48.532;8.026;2024-03-25T12:26:02;20.00;1.00
21207;DHT22;10761;48.532;8.026;2024-03-25T12:28:30;19.80;1.00
21207;DHT22;10761;48.532;8.026;2024-03-25T12:30:56;19.90;1.00
21207;DHT22;10761;48.532;8.026;2024-03-25T12:33:23;19.90;1.00
21207;DHT22;10761;48.532;8.026;2024-03-25T12:35:49;20.20;1.00
21207;DHT22;10761;48.532;8.026;2024-03-25T12:40:47;20.40;1.00
21207;DHT22;10761;48.532;8.026;2024-03-25T12:43:16;20.90;1.00
21207;DHT22;10761;48.532;8.026;2024-03-25T12:45:42;20.90;1.00
21207;DHT22;10761;48.532;8.026;2024-03-25T12:48:08;20.70;1.00
21207;DHT22;10761;48.532;8.026;2024-03-25T12:50:34;21.10;1.00
21207;DHT22;10761;48.532;8.026;2024-03-25T12:53:00;21.70;1.00
21207;DHT22;10761;48.532;8.026;2024-03-25T12:55:25;21.70;1.00
21207;DHT22;10761;48.532;8.026;2024-03-25T12:57:51;21.50;1.00
21207;DHT22;10761;48.532;8.026;2024-03-25T13:00:17;21.90;1.00
21207;DHT22;10761;48.532;8.026;2024-03-25T13:02:43;22.60;1.00
21207;DHT22;10761;48.532;8.026;2024-03-25T13:05:09;23.00;1.00
21207;DHT22;10761;48.532;8.026;2024-03-25T13:07:34;22.80;1.00
21207;DHT22;10761;48.532;8.026;2024-03-25T13:10:00;22.70;1.00
21207;DHT22;10761;48.532;8.026;2024-03-25T13:12:25;22.80;1.00
21207;DHT22;10761;48.532;8.026;2024-03-25T13:14:51;23.00;1.00
21207;DHT22;10761;48.532;8.026;2024-03-25T13:17:17;23.30;1.00
21207;DHT22;10761;48.532;8.026;2024-03-25T13:19:42;23.50;1.00
21207;DHT22;10761;48.532;8.026;2024-03-25T13:22:08;23.40;1.00
21207;DHT22;10761;48.532;8.026;2024-03-25T13:24:33;23.90;1.00
21207;DHT22;10761;48.532;8.026;2024-03-25T13:26:59;23.90;1.00
21207;DHT22;10761;48.532;8.026;2024-03-25T13:29:24;23.80;1.00
21207;DHT22;10761;48.532;8.026;2024-03-25T13:31:50;24.00;1.00
21207;DHT22;10761;48.532;8.026;2024-03-25T13:34:17;24.00;1.00
21207;DHT22;10761;48.532;8.026;2024-03-25T13:36:42;24.60;1.00
21207;DHT22;10761;48.532;8.026;2024-03-25T13:39:08;23.20;1.00
21207;DHT22;10761;48.532;8.026;2024-03-25T13:41:34;23.10;1.00
21207;DHT22;10761;48.532;8.026;2024-03-25T13:43:59;22.40;1.00
21207;DHT22;10761;48.532;8.026;2024-03-25T13:46:25;22.50;1.00
21207;DHT22;10761;48.532;8.026;2024-03-25T13:48:51;23.10;1.00
21207;DHT22;10761;48.532;8.026;2024-03-25T13:51:17;23.70;1.00
21207;DHT22;10761;48.532;8.026;2024-03-25T13:53:43;24.20;1.00
21207;DHT22;10761;48.532;8.026;2024-03-25T13:56:09;23.90;1.00
21207;DHT22;10761;48.532;8.026;2024-03-25T13:58:34;23.50;1.00
21207;DHT22;10761;48.532;8.026;2024-03-25T14:01:00;23.10;1.00
21207;DHT22;10761;48.532;8.026;2024-03-25T14:03:26;23.10;1.00
21207;DHT22;10761;48.532;8.026;2024-03-25T14:05:52;23.50;1.00
21207;DHT22;10761;48.532;8.026;2024-03-25T14:08:17;24.70;1.00
21207;DHT22;10761;48.532;8.026;2024-03-25T14:10:43;25.30;1.00
21207;DHT22;10761;48.532;8.026;2024-03-25T14:13:09;25.40;1.00
21207;DHT22;10761;48.532;8.026;2024-03-25T14:15:34;24.40;1.00
21207;DHT22;10761;48.532;8.026;2024-03-25T14:18:00;24.60;1.00
21207;DHT22;10761;48.532;8.026;2024-03-25T14:20:26;25.10;1.00
21207;DHT22;10761;48.532;8.026;2024-03-25T14:22:51;25.50;1.00
21207;DHT22;10761;48.532;8.026;2024-03-25T14:25:17;25.10;1.00
21207;DHT22;10761;48.532;8.026;2024-03-25T14:27:42;24.90;1.00
21207;DHT22;10761;48.532;8.026;2024-03-25T14:30:08;24.90;1.00
21207;DHT22;10761;48.532;8.026;2024-03-25T14:32:37;24.40;1.00
21207;DHT22;10761;48.532;8.026;2024-03-25T14:35:05;24.50;1.00
21207;DHT22;10761;48.532;8.026;2024-03-25T14:37:32;24.70;1.00
21207;DHT22;10761;48.532;8.026;2024-03-25T14:39:58;24.80;1.00
21207;DHT22;10761;48.532;8.026;2024-03-25T14:42:24;25.20;1.00
21207;DHT22;10761;48.532;8.026;2024-03-25T14:44:49;25.60;1.00
21207;DHT22;10761;48.532;8.026;2024-03-25T14:47:15;26.00;1.00
21207;DHT22;10761;48.532;8.026;2024-03-25T14:49:41;25.70;1.00
21207;DHT22;10761;48.532;8.026;2024-03-25T14:52:06;25.70;1.00
21207;DHT22;10761;48.532;8.026;2024-03-25T14:54:33;25.90;1.00
21207;DHT22;10761;48.532;8.026;2024-03-25T14:57:00;25.40;1.00
21207;DHT22;10761;48.532;8.026;2024-03-25T14:59:28;25.70;1.00
21207;DHT22;10761;48.532;8.026;2024-03-25T15:01:58;26.10;1.00
21207;DHT22;10761;48.532;8.026;2024-03-25T15:04:24;26.60;1.00
21207;DHT22;10761;48.532;8.026;2024-03-25T15:06:50;26.50;1.00
21207;DHT22;10761;48.532;8.026;2024-03-25T15:09:15;25.60;1.00
21207;DHT22;10761;48.532;8.026;2024-03-25T15:11:41;25.40;1.00
21207;DHT22;10761;48.532;8.026;2024-03-25T15:14:06;25.20;1.00
21207;DHT22;10761;48.532;8.026;2024-03-25T15:16:32;25.70;1.00
21207;DHT22;10761;48.532;8.026;2024-03-25T15:18:57;25.90;1.00
21207;DHT22;10761;48.532;8.026;2024-03-25T15:21:23;26.10;1.00
21207;DHT22;10761;48.532;8.026;2024-03-25T15:23:48;26.50;1.00
21207;DHT22;10761;48.532;8.026;2024-03-25T15:26:15;26.70;1.00
21207;DHT22;10761;48.532;8.026;2024-03-25T15:28:40;26.80;1.00
21207;DHT22;10761;48.532;8.026;2024-03-25T15:31:06;26.50;1.00
21207;DHT22;10761;48.532;8.026;2024-03-25T15:33:31;26.70;1.00
21207;DHT22;10761;48.532;8.026;2024-03-25T15:35:58;26.30;1.00
21207;DHT22;10761;48.532;8.026;2024-03-25T15:38:24;26.20;1.00
21207;DHT22;10761;48.532;8.026;2024-03-25T15:40:49;25.80;1.00
21207;DHT22;10761;48.532;8.026;2024-03-25T15:43:18;25.30;1.00
21207;DHT22;10761;48.532;8.026;2024-03-25T15:45:57;24.40;1.00
21207;DHT22;10761;48.532;8.026;2024-03-25T15:48:22;24.00;1.00
21207;DHT22;10761;48.532;8.026;2024-03-25T15:50:48;24.10;1.00